sensor_id;sensor_type;location;lat;lon;timestamp;P1;durP1;ratioP1;P2;durP2;ratioP2
19343;SDS011;9808;52.402;16.678;2022-10-16T00:01:32;30.93;;;16.80;;
19343;SDS011;9808;52.402;16.678;2022-10-16T00:03:59;29.50;;;17.33;;
19343;SDS011;9808;52.402;16.678;2022-10-16T00:06:27;30.37;;;16.83;;
19343;SDS011;9808;52.402;16.678;2022-10-16T00:08:55;28.07;;;16.97;;
19343;SDS011;9808;52.402;16.678;2022-10-16T00:11:23;28.37;;;16.80;;
19343;SDS011;9808;52.402;16.678;2022-10-16T00:13:54;24.77;;;15.87;;
19343;SDS011;9808;52.402;16.678;2022-10-16T00:16:23;26.67;;;16.27;;
19343;SDS011;9808;52.402;16.678;2022-10-16T00:18:50;26.57;;;16.47;;
19343;SDS011;9808;52.402;16.678;2022-10-16T00:21:18;23.93;;;15.33;;
19343;SDS011;9808;52.402;16.678;2022-10-16T00:23:46;26.33;;;15.07;;
19343;SDS011;9808;52.402;16.678;2022-10-16T00:26:17;26.67;;;15.23;;
19343;SDS011;9808;52.402;16.678;2022-10-16T00:28:48;24.47;;;15.03;;
19343;SDS011;9808;52.402;16.678;2022-10-16T00:31:16;25.47;;;14.33;;
19343;SDS011;9808;52.402;16.678;2022-10-16T00:33:44;27.10;;;15.33;;
19343;SDS011;9808;52.402;16.678;2022-10-16T00:36:12;24.10;;;13.80;;
19343;SDS011;9808;52.402;16.678;2022-10-16T00:38:40;29.07;;;14.90;;
19343;SDS011;9808;52.402;16.678;2022-10-16T00:41:09;31.00;;;14.67;;
19343;SDS011;9808;52.402;16.678;2022-10-16T00:43:39;23.93;;;14.77;;
19343;SDS011;9808;52.402;16.678;2022-10-16T00:48:54;24.73;;;14.00;;
19343;SDS011;9808;52.402;16.678;2022-10-16T00:51:32;21.47;;;13.93;;
19343;SDS011;9808;52.402;16.678;2022-10-16T00:54:04;22.47;;;14.67;;
19343;SDS011;9808;52.402;16.678;2022-10-16T00:56:39;24.07;;;14.30;;
19343;SDS011;9808;52.402;16.678;2022-10-16T00:59:12;24.70;;;13.85;;
19343;SDS011;9808;52.402;16.678;2022-10-16T01:02:01;23.60;;;13.90;;
19343;SDS011;9808;52.402;16.678;2022-10-16T01:04:34;22.63;;;14.33;;
19343;SDS011;9808;52.402;16.678;2022-10-16T01:12:51;24.07;;;14.20;;
19343;SDS011;9808;52.402;16.678;2022-10-16T01:18:02;25.20;;;13.27;;
19343;SDS011;9808;52.402;16.678;2022-10-16T01:20:54;21.77;;;13.23;;
19343;SDS011;9808;52.402;16.678;2022-10-16T01:29:22;21.07;;;12.37;;
19343;SDS011;9808;52.402;16.678;2022-10-16T01:32:15;21.80;;;12.93;;
19343;SDS011;9808;52.402;16.678;2022-10-16T01:35:13;22.23;;;12.27;;
19343;SDS011;9808;52.402;16.678;2022-10-16T01:38:36;19.43;;;12.07;;
19343;SDS011;9808;52.402;16.678;2022-10-16T01:40:44;20.13;;;12.10;;
19343;SDS011;9808;52.402;16.678;2022-10-16T01:43:17;19.63;;;12.37;;
19343;SDS011;9808;52.402;16.678;2022-10-16T01:45:47;19.83;;;11.70;;
19343;SDS011;9808;52.402;16.678;2022-10-16T01:48:16;20.63;;;12.97;;
19343;SDS011;9808;52.402;16.678;2022-10-16T01:50:48;19.10;;;11.63;;
19343;SDS011;9808;52.402;16.678;2022-10-16T01:53:31;20.23;;;12.10;;
19343;SDS011;9808;52.402;16.678;2022-10-16T01:55:59;19.73;;;12.40;;
19343;SDS011;9808;52.402;16.678;2022-10-16T01:58:28;22.05;;;12.68;;
19343;SDS011;9808;52.402;16.678;2022-10-16T02:01:01;19.73;;;12.43;;
19343;SDS011;9808;52.402;16.678;2022-10-16T02:03:30;17.30;;;11.20;;
19343;SDS011;9808;52.402;16.678;2022-10-16T02:05:58;19.17;;;12.02;;
19343;SDS011;9808;52.402;16.678;2022-10-16T02:08:26;21.97;;;12.40;;
19343;SDS011;9808;52.402;16.678;2022-10-16T02:10:56;19.75;;;12.02;;
19343;SDS011;9808;52.402;16.678;2022-10-16T02:13:29;17.20;;;11.48;;
19343;SDS011;9808;52.402;16.678;2022-10-16T02:16:02;18.80;;;11.63;;
19343;SDS011;9808;52.402;16.678;2022-10-16T02:18:28;23.33;;;12.70;;
19343;SDS011;9808;52.402;16.678;2022-10-16T02:23:47;19.02;;;11.18;;
19343;SDS011;9808;52.402;16.678;2022-10-16T02:26:28;17.02;;;11.07;;
19343;SDS011;9808;52.402;16.678;2022-10-16T02:29:02;19.27;;;11.43;;
19343;SDS011;9808;52.402;16.678;2022-10-16T02:31:38;19.30;;;10.97;;
19343;SDS011;9808;52.402;16.678;2022-10-16T02:34:09;19.83;;;11.43;;
19343;SDS011;9808;52.402;16.678;2022-10-16T02:36:38;17.80;;;10.87;;
19343;SDS011;9808;52.402;16.678;2022-10-16T02:39:06;19.30;;;12.27;;
19343;SDS011;9808;52.402;16.678;2022-10-16T02:41:34;18.33;;;11.83;;
19343;SDS011;9808;52.402;16.678;2022-10-16T02:44:01;20.07;;;12.60;;
19343;SDS011;9808;52.402;16.678;2022-10-16T02:46:28;18.07;;;11.87;;
19343;SDS011;9808;52.402;16.678;2022-10-16T02:48:55;19.03;;;12.17;;
19343;SDS011;9808;52.402;16.678;2022-10-16T02:51:22;19.17;;;12.20;;
19343;SDS011;9808;52.402;16.678;2022-10-16T02:53:48;20.67;;;12.17;;
19343;SDS011;9808;52.402;16.678;2022-10-16T02:56:15;17.90;;;12.00;;
19343;SDS011;9808;52.402;16.678;2022-10-16T02:58:42;21.40;;;12.27;;
19343;SDS011;9808;52.402;16.678;2022-10-16T03:01:09;17.58;;;12.02;;
19343;SDS011;9808;52.402;16.678;2022-10-16T03:03:35;21.77;;;13.47;;
19343;SDS011;9808;52.402;16.678;2022-10-16T03:06:02;22.60;;;12.70;;
19343;SDS011;9808;52.402;16.678;2022-10-16T03:08:29;21.02;;;13.43;;
19343;SDS011;9808;52.402;16.678;2022-10-16T03:10:56;21.90;;;13.33;;
19343;SDS011;9808;52.402;16.678;2022-10-16T03:13:23;22.53;;;13.60;;
19343;SDS011;9808;52.402;16.678;2022-10-16T03:15:50;20.88;;;12.35;;
19343;SDS011;9808;52.402;16.678;2022-10-16T03:18:17;23.50;;;13.43;;
19343;SDS011;9808;52.402;16.678;2022-10-16T03:20:43;19.33;;;12.57;;
19343;SDS011;9808;52.402;16.678;2022-10-16T03:23:10;22.25;;;12.93;;
19343;SDS011;9808;52.402;16.678;2022-10-16T03:25:37;22.80;;;13.38;;
19343;SDS011;9808;52.402;16.678;2022-10-16T03:28:04;27.13;;;14.00;;
19343;SDS011;9808;52.402;16.678;2022-10-16T03:30:31;22.38;;;13.40;;
19343;SDS011;9808;52.402;16.678;2022-10-16T03:32:58;22.43;;;12.97;;
19343;SDS011;9808;52.402;16.678;2022-10-16T03:35:24;23.98;;;13.20;;
19343;SDS011;9808;52.402;16.678;2022-10-16T03:37:51;21.87;;;13.20;;
19343;SDS011;9808;52.402;16.678;2022-10-16T03:40:18;21.48;;;13.38;;
19343;SDS011;9808;52.402;16.678;2022-10-16T03:42:45;22.23;;;13.27;;
19343;SDS011;9808;52.402;16.678;2022-10-16T03:45:12;24.23;;;14.07;;
19343;SDS011;9808;52.402;16.678;2022-10-16T03:47:39;23.05;;;14.25;;
19343;SDS011;9808;52.402;16.678;2022-10-16T03:50:06;22.48;;;13.52;;
19343;SDS011;9808;52.402;16.678;2022-10-16T03:52:33;19.98;;;12.95;;
19343;SDS011;9808;52.402;16.678;2022-10-16T03:55:00;22.38;;;13.20;;
19343;SDS011;9808;52.402;16.678;2022-10-16T03:57:27;21.98;;;12.48;;
19343;SDS011;9808;52.402;16.678;2022-10-16T03:59:54;21.20;;;12.93;;
19343;SDS011;9808;52.402;16.678;2022-10-16T04:02:21;20.75;;;13.48;;
19343;SDS011;9808;52.402;16.678;2022-10-16T04:04:47;20.90;;;12.30;;
19343;SDS011;9808;52.402;16.678;2022-10-16T04:07:14;22.17;;;13.50;;
19343;SDS011;9808;52.402;16.678;2022-10-16T04:09:41;20.88;;;13.23;;
19343;SDS011;9808;52.402;16.678;2022-10-16T04:12:08;21.60;;;13.90;;
19343;SDS011;9808;52.402;16.678;2022-10-16T04:14:34;21.37;;;13.40;;
19343;SDS011;9808;52.402;16.678;2022-10-16T04:17:01;20.98;;;13.02;;
19343;SDS011;9808;52.402;16.678;2022-10-16T04:19:28;20.15;;;12.75;;
19343;SDS011;9808;52.402;16.678;2022-10-16T04:21:54;20.17;;;13.07;;
19343;SDS011;9808;52.402;16.678;2022-10-16T04:24:21;22.52;;;14.10;;
19343;SDS011;9808;52.402;16.678;2022-10-16T04:26:48;22.98;;;14.00;;
19343;SDS011;9808;52.402;16.678;2022-10-16T04:29:15;21.87;;;13.37;;
19343;SDS011;9808;52.402;16.678;2022-10-16T04:31:42;21.23;;;13.03;;
19343;SDS011;9808;52.402;16.678;2022-10-16T04:34:08;19.52;;;12.80;;
19343;SDS011;9808;52.402;16.678;2022-10-16T04:36:35;22.13;;;13.48;;
19343;SDS011;9808;52.402;16.678;2022-10-16T04:39:02;21.77;;;13.27;;
19343;SDS011;9808;52.402;16.678;2022-10-16T04:41:28;20.90;;;13.70;;
19343;SDS011;9808;52.402;16.678;2022-10-16T04:43:55;22.98;;;13.52;;
19343;SDS011;9808;52.402;16.678;2022-10-16T04:46:22;23.50;;;13.70;;
19343;SDS011;9808;52.402;16.678;2022-10-16T04:48:49;22.67;;;13.82;;
19343;SDS011;9808;52.402;16.678;2022-10-16T04:51:15;21.63;;;13.57;;
19343;SDS011;9808;52.402;16.678;2022-10-16T04:53:42;25.07;;;14.53;;
19343;SDS011;9808;52.402;16.678;2022-10-16T04:56:09;24.30;;;14.88;;
19343;SDS011;9808;52.402;16.678;2022-10-16T04:58:35;23.70;;;14.67;;
19343;SDS011;9808;52.402;16.678;2022-10-16T05:01:02;22.50;;;14.45;;
19343;SDS011;9808;52.402;16.678;2022-10-16T05:03:29;24.70;;;14.85;;
19343;SDS011;9808;52.402;16.678;2022-10-16T05:06:01;24.15;;;15.25;;
19343;SDS011;9808;52.402;16.678;2022-10-16T05:08:27;30.17;;;14.77;;
19343;SDS011;9808;52.402;16.678;2022-10-16T05:10:54;22.55;;;14.60;;
19343;SDS011;9808;52.402;16.678;2022-10-16T05:13:21;29.30;;;14.50;;
19343;SDS011;9808;52.402;16.678;2022-10-16T05:15:49;25.63;;;14.15;;
19343;SDS011;9808;52.402;16.678;2022-10-16T05:18:16;23.15;;;13.40;;
19343;SDS011;9808;52.402;16.678;2022-10-16T05:20:43;23.20;;;13.88;;
19343;SDS011;9808;52.402;16.678;2022-10-16T05:23:10;22.60;;;13.68;;
19343;SDS011;9808;52.402;16.678;2022-10-16T05:25:38;22.55;;;13.73;;
19343;SDS011;9808;52.402;16.678;2022-10-16T05:28:05;21.95;;;13.85;;
19343;SDS011;9808;52.402;16.678;2022-10-16T05:30:32;26.87;;;14.53;;
19343;SDS011;9808;52.402;16.678;2022-10-16T05:32:58;25.15;;;13.02;;
19343;SDS011;9808;52.402;16.678;2022-10-16T05:35:25;27.02;;;13.65;;
19343;SDS011;9808;52.402;16.678;2022-10-16T05:37:52;23.38;;;13.73;;
19343;SDS011;9808;52.402;16.678;2022-10-16T05:40:19;21.97;;;13.63;;
19343;SDS011;9808;52.402;16.678;2022-10-16T05:42:45;22.55;;;13.40;;
19343;SDS011;9808;52.402;16.678;2022-10-16T05:45:12;24.92;;;14.05;;
19343;SDS011;9808;52.402;16.678;2022-10-16T05:47:39;21.67;;;13.20;;
19343;SDS011;9808;52.402;16.678;2022-10-16T05:50:06;22.55;;;14.18;;
19343;SDS011;9808;52.402;16.678;2022-10-16T05:52:33;20.05;;;12.88;;
19343;SDS011;9808;52.402;16.678;2022-10-16T05:54:59;21.65;;;13.43;;
19343;SDS011;9808;52.402;16.678;2022-10-16T05:57:26;24.45;;;13.93;;
19343;SDS011;9808;52.402;16.678;2022-10-16T05:59:53;21.75;;;13.27;;
19343;SDS011;9808;52.402;16.678;2022-10-16T06:02:20;22.73;;;13.48;;
19343;SDS011;9808;52.402;16.678;2022-10-16T06:04:47;21.85;;;13.57;;
19343;SDS011;9808;52.402;16.678;2022-10-16T06:07:13;22.25;;;13.88;;
19343;SDS011;9808;52.402;16.678;2022-10-16T06:09:40;22.73;;;14.25;;
19343;SDS011;9808;52.402;16.678;2022-10-16T06:12:07;24.17;;;15.90;;
19343;SDS011;9808;52.402;16.678;2022-10-16T06:14:34;26.42;;;17.02;;
19343;SDS011;9808;52.402;16.678;2022-10-16T06:17:01;24.38;;;15.55;;
19343;SDS011;9808;52.402;16.678;2022-10-16T06:19:27;31.02;;;17.73;;
19343;SDS011;9808;52.402;16.678;2022-10-16T06:21:54;27.05;;;16.95;;
19343;SDS011;9808;52.402;16.678;2022-10-16T06:24:21;28.88;;;16.45;;
19343;SDS011;9808;52.402;16.678;2022-10-16T06:26:48;27.30;;;15.07;;
19343;SDS011;9808;52.402;16.678;2022-10-16T06:29:14;26.90;;;14.60;;
19343;SDS011;9808;52.402;16.678;2022-10-16T06:31:41;30.52;;;16.85;;
19343;SDS011;9808;52.402;16.678;2022-10-16T06:34:11;48.83;;;21.80;;
19343;SDS011;9808;52.402;16.678;2022-10-16T06:36:38;62.75;;;23.52;;
19343;SDS011;9808;52.402;16.678;2022-10-16T06:39:06;56.72;;;23.30;;
19343;SDS011;9808;52.402;16.678;2022-10-16T06:41:35;58.30;;;29.08;;
19343;SDS011;9808;52.402;16.678;2022-10-16T06:44:05;47.13;;;25.05;;
19343;SDS011;9808;52.402;16.678;2022-10-16T06:46:33;29.40;;;17.55;;
19343;SDS011;9808;52.402;16.678;2022-10-16T06:49:00;25.07;;;16.40;;
19343;SDS011;9808;52.402;16.678;2022-10-16T06:51:27;26.15;;;16.23;;
19343;SDS011;9808;52.402;16.678;2022-10-16T06:53:55;28.30;;;16.83;;
19343;SDS011;9808;52.402;16.678;2022-10-16T06:56:30;27.00;;;17.48;;
19343;SDS011;9808;52.402;16.678;2022-10-16T06:58:58;25.60;;;15.25;;
19343;SDS011;9808;52.402;16.678;2022-10-16T07:01:25;28.00;;;16.48;;
19343;SDS011;9808;52.402;16.678;2022-10-16T07:03:52;30.48;;;17.17;;
19343;SDS011;9808;52.402;16.678;2022-10-16T07:06:21;25.38;;;15.25;;
19343;SDS011;9808;52.402;16.678;2022-10-16T07:08:49;33.53;;;17.60;;
19343;SDS011;9808;52.402;16.678;2022-10-16T07:11:17;29.58;;;17.55;;
19343;SDS011;9808;52.402;16.678;2022-10-16T07:13:46;24.83;;;15.02;;
19343;SDS011;9808;52.402;16.678;2022-10-16T07:16:22;24.55;;;15.52;;
19343;SDS011;9808;52.402;16.678;2022-10-16T07:18:50;23.45;;;14.82;;
19343;SDS011;9808;52.402;16.678;2022-10-16T07:21:23;23.25;;;14.45;;
19343;SDS011;9808;52.402;16.678;2022-10-16T07:23:52;20.63;;;14.15;;
19343;SDS011;9808;52.402;16.678;2022-10-16T07:26:20;22.73;;;13.48;;
19343;SDS011;9808;52.402;16.678;2022-10-16T07:28:47;27.85;;;14.02;;
19343;SDS011;9808;52.402;16.678;2022-10-16T07:31:14;21.85;;;13.98;;
19343;SDS011;9808;52.402;16.678;2022-10-16T07:33:43;20.90;;;13.35;;
19343;SDS011;9808;52.402;16.678;2022-10-16T07:36:11;20.60;;;14.35;;
19343;SDS011;9808;52.402;16.678;2022-10-16T07:38:41;21.35;;;13.98;;
19343;SDS011;9808;52.402;16.678;2022-10-16T07:41:09;21.45;;;14.75;;
19343;SDS011;9808;52.402;16.678;2022-10-16T07:43:38;25.02;;;14.63;;
19343;SDS011;9808;52.402;16.678;2022-10-16T07:46:05;24.90;;;16.05;;
19343;SDS011;9808;52.402;16.678;2022-10-16T07:48:33;32.00;;;15.18;;
19343;SDS011;9808;52.402;16.678;2022-10-16T07:51:01;21.67;;;14.00;;
19343;SDS011;9808;52.402;16.678;2022-10-16T07:53:30;26.15;;;13.90;;
19343;SDS011;9808;52.402;16.678;2022-10-16T07:56:01;23.92;;;14.90;;
19343;SDS011;9808;52.402;16.678;2022-10-16T07:58:29;25.48;;;14.52;;
19343;SDS011;9808;52.402;16.678;2022-10-16T08:00:56;25.05;;;15.90;;
19343;SDS011;9808;52.402;16.678;2022-10-16T08:03:24;27.63;;;15.40;;
19343;SDS011;9808;52.402;16.678;2022-10-16T08:05:51;32.78;;;16.25;;
19343;SDS011;9808;52.402;16.678;2022-10-16T08:08:18;27.75;;;15.05;;
19343;SDS011;9808;52.402;16.678;2022-10-16T08:10:45;22.40;;;13.90;;
19343;SDS011;9808;52.402;16.678;2022-10-16T08:13:12;23.88;;;14.18;;
19343;SDS011;9808;52.402;16.678;2022-10-16T08:15:42;24.67;;;14.73;;
19343;SDS011;9808;52.402;16.678;2022-10-16T08:18:10;20.30;;;13.18;;
19343;SDS011;9808;52.402;16.678;2022-10-16T08:20:38;18.15;;;12.35;;
19343;SDS011;9808;52.402;16.678;2022-10-16T08:23:08;19.42;;;12.45;;
19343;SDS011;9808;52.402;16.678;2022-10-16T08:25:37;19.85;;;12.00;;
19343;SDS011;9808;52.402;16.678;2022-10-16T08:28:05;18.88;;;11.65;;
19343;SDS011;9808;52.402;16.678;2022-10-16T08:30:33;18.02;;;11.68;;
19343;SDS011;9808;52.402;16.678;2022-10-16T08:33:00;17.90;;;11.63;;
19343;SDS011;9808;52.402;16.678;2022-10-16T08:35:27;16.73;;;11.20;;
19343;SDS011;9808;52.402;16.678;2022-10-16T08:37:54;14.32;;;10.90;;
19343;SDS011;9808;52.402;16.678;2022-10-16T08:40:26;17.25;;;11.95;;
19343;SDS011;9808;52.402;16.678;2022-10-16T08:48:32;12.90;;;9.43;;
19343;SDS011;9808;52.402;16.678;2022-10-16T08:51:10;14.43;;;9.88;;
19343;SDS011;9808;52.402;16.678;2022-10-16T08:53:45;16.58;;;10.48;;
19343;SDS011;9808;52.402;16.678;2022-10-16T08:56:24;16.35;;;10.73;;
19343;SDS011;9808;52.402;16.678;2022-10-16T08:58:52;13.93;;;9.32;;
19343;SDS011;9808;52.402;16.678;2022-10-16T09:01:44;15.25;;;9.65;;
19343;SDS011;9808;52.402;16.678;2022-10-16T09:07:02;13.93;;;9.00;;
19343;SDS011;9808;52.402;16.678;2022-10-16T09:12:44;13.13;;;8.80;;
19343;SDS011;9808;52.402;16.678;2022-10-16T09:18:22;11.60;;;8.07;;
19343;SDS011;9808;52.402;16.678;2022-10-16T09:21:09;12.48;;;8.75;;
19343;SDS011;9808;52.402;16.678;2022-10-16T09:23:39;11.95;;;8.15;;
19343;SDS011;9808;52.402;16.678;2022-10-16T09:26:09;10.63;;;7.47;;
19343;SDS011;9808;52.402;16.678;2022-10-16T09:28:40;12.75;;;8.15;;
19343;SDS011;9808;52.402;16.678;2022-10-16T09:34:02;11.40;;;7.75;;
19343;SDS011;9808;52.402;16.678;2022-10-16T09:36:35;11.13;;;7.68;;
19343;SDS011;9808;52.402;16.678;2022-10-16T09:39:09;14.70;;;7.70;;
19343;SDS011;9808;52.402;16.678;2022-10-16T09:41:39;12.07;;;7.90;;
19343;SDS011;9808;52.402;16.678;2022-10-16T09:44:42;13.82;;;6.95;;
19343;SDS011;9808;52.402;16.678;2022-10-16T09:47:05;10.07;;;6.72;;
19343;SDS011;9808;52.402;16.678;2022-10-16T09:49:38;10.50;;;6.43;;
19343;SDS011;9808;52.402;16.678;2022-10-16T09:52:11;11.43;;;7.10;;
19343;SDS011;9808;52.402;16.678;2022-10-16T09:54:53;9.77;;;6.25;;
19343;SDS011;9808;52.402;16.678;2022-10-16T09:57:21;12.00;;;6.10;;
19343;SDS011;9808;52.402;16.678;2022-10-16T09:59:53;12.45;;;7.18;;
19343;SDS011;9808;52.402;16.678;2022-10-16T10:02:31;10.95;;;6.03;;
19343;SDS011;9808;52.402;16.678;2022-10-16T10:05:01;9.35;;;7.15;;
19343;SDS011;9808;52.402;16.678;2022-10-16T10:07:31;15.98;;;6.43;;
19343;SDS011;9808;52.402;16.678;2022-10-16T10:10:03;8.50;;;6.40;;
19343;SDS011;9808;52.402;16.678;2022-10-16T10:12:32;11.68;;;6.10;;
19343;SDS011;9808;52.402;16.678;2022-10-16T10:15:04;9.02;;;6.63;;
19343;SDS011;9808;52.402;16.678;2022-10-16T10:17:46;9.13;;;6.38;;
19343;SDS011;9808;52.402;16.678;2022-10-16T10:22:55;8.77;;;5.85;;
19343;SDS011;9808;52.402;16.678;2022-10-16T10:28:00;8.65;;;5.15;;
19343;SDS011;9808;52.402;16.678;2022-10-16T10:31:06;6.97;;;4.72;;
19343;SDS011;9808;52.402;16.678;2022-10-16T10:33:45;6.90;;;4.90;;
19343;SDS011;9808;52.402;16.678;2022-10-16T10:36:34;7.43;;;5.10;;
19343;SDS011;9808;52.402;16.678;2022-10-16T10:39:16;7.45;;;4.90;;
19343;SDS011;9808;52.402;16.678;2022-10-16T10:49:57;5.65;;;3.60;;
19343;SDS011;9808;52.402;16.678;2022-10-16T10:52:38;7.47;;;3.90;;
19343;SDS011;9808;52.402;16.678;2022-10-16T11:06:48;5.85;;;3.72;;
19343;SDS011;9808;52.402;16.678;2022-10-16T11:09:20;6.30;;;3.67;;
19343;SDS011;9808;52.402;16.678;2022-10-16T11:14:40;5.57;;;3.30;;
19343;SDS011;9808;52.402;16.678;2022-10-16T11:17:13;6.30;;;4.05;;
19343;SDS011;9808;52.402;16.678;2022-10-16T11:19:48;8.55;;;4.38;;
19343;SDS011;9808;52.402;16.678;2022-10-16T11:22:29;6.20;;;3.90;;
19343;SDS011;9808;52.402;16.678;2022-10-16T11:30:26;6.68;;;3.63;;
19343;SDS011;9808;52.402;16.678;2022-10-16T11:33:09;8.20;;;3.90;;
19343;SDS011;9808;52.402;16.678;2022-10-16T11:35:53;6.10;;;3.40;;
19343;SDS011;9808;52.402;16.678;2022-10-16T11:38:49;6.45;;;3.88;;
19343;SDS011;9808;52.402;16.678;2022-10-16T11:41:28;6.35;;;3.42;;
19343;SDS011;9808;52.402;16.678;2022-10-16T11:44:06;6.60;;;3.30;;
19343;SDS011;9808;52.402;16.678;2022-10-16T11:47:15;5.80;;;4.20;;
19343;SDS011;9808;52.402;16.678;2022-10-16T11:50:26;6.55;;;3.67;;
19343;SDS011;9808;52.402;16.678;2022-10-16T11:55:31;7.45;;;3.70;;
19343;SDS011;9808;52.402;16.678;2022-10-16T11:58:22;6.47;;;3.40;;
19343;SDS011;9808;52.402;16.678;2022-10-16T12:06:28;6.80;;;3.42;;
19343;SDS011;9808;52.402;16.678;2022-10-16T12:08:59;4.78;;;2.78;;
19343;SDS011;9808;52.402;16.678;2022-10-16T12:17:00;5.85;;;3.35;;
19343;SDS011;9808;52.402;16.678;2022-10-16T12:19:28;6.47;;;4.05;;
19343;SDS011;9808;52.402;16.678;2022-10-16T12:22:00;7.05;;;3.38;;
19343;SDS011;9808;52.402;16.678;2022-10-16T12:24:31;6.68;;;3.40;;
19343;SDS011;9808;52.402;16.678;2022-10-16T12:27:02;5.65;;;3.30;;
19343;SDS011;9808;52.402;16.678;2022-10-16T12:29:37;7.43;;;3.60;;
19343;SDS011;9808;52.402;16.678;2022-10-16T12:35:22;7.07;;;4.32;;
19343;SDS011;9808;52.402;16.678;2022-10-16T12:37:51;7.35;;;3.75;;
19343;SDS011;9808;52.402;16.678;2022-10-16T12:42:52;6.57;;;3.80;;
19343;SDS011;9808;52.402;16.678;2022-10-16T12:45:32;7.53;;;3.03;;
19343;SDS011;9808;52.402;16.678;2022-10-16T12:48:00;8.45;;;3.25;;
19343;SDS011;9808;52.402;16.678;2022-10-16T12:50:31;7.20;;;3.42;;
19343;SDS011;9808;52.402;16.678;2022-10-16T12:53:01;6.43;;;3.80;;
19343;SDS011;9808;52.402;16.678;2022-10-16T12:55:34;6.90;;;3.15;;
19343;SDS011;9808;52.402;16.678;2022-10-16T12:58:16;6.68;;;3.20;;
19343;SDS011;9808;52.402;16.678;2022-10-16T13:01:02;5.60;;;3.17;;
19343;SDS011;9808;52.402;16.678;2022-10-16T13:03:42;7.60;;;3.30;;
19343;SDS011;9808;52.402;16.678;2022-10-16T13:14:28;3.90;;;2.70;;
19343;SDS011;9808;52.402;16.678;2022-10-16T13:17:21;5.35;;;2.95;;
19343;SDS011;9808;52.402;16.678;2022-10-16T13:22:51;4.97;;;3.20;;
19343;SDS011;9808;52.402;16.678;2022-10-16T13:28:11;5.32;;;3.10;;
19343;SDS011;9808;52.402;16.678;2022-10-16T13:30:43;6.65;;;3.15;;
19343;SDS011;9808;52.402;16.678;2022-10-16T13:33:20;6.32;;;2.75;;
19343;SDS011;9808;52.402;16.678;2022-10-16T13:35:55;4.75;;;2.92;;
19343;SDS011;9808;52.402;16.678;2022-10-16T13:38:23;7.85;;;2.67;;
19343;SDS011;9808;52.402;16.678;2022-10-16T13:46:05;5.38;;;2.95;;
19343;SDS011;9808;52.402;16.678;2022-10-16T13:48:37;5.47;;;2.65;;
19343;SDS011;9808;52.402;16.678;2022-10-16T13:51:14;4.30;;;2.58;;
19343;SDS011;9808;52.402;16.678;2022-10-16T13:53:43;4.50;;;2.47;;
19343;SDS011;9808;52.402;16.678;2022-10-16T13:56:12;5.28;;;2.88;;
19343;SDS011;9808;52.402;16.678;2022-10-16T13:58:41;6.70;;;2.90;;
19343;SDS011;9808;52.402;16.678;2022-10-16T14:01:18;4.28;;;2.30;;
19343;SDS011;9808;52.402;16.678;2022-10-16T14:04:00;4.07;;;2.40;;
19343;SDS011;9808;52.402;16.678;2022-10-16T14:06:29;6.15;;;2.15;;
19343;SDS011;9808;52.402;16.678;2022-10-16T14:11:45;5.32;;;2.38;;
19343;SDS011;9808;52.402;16.678;2022-10-16T14:14:15;4.90;;;2.17;;
19343;SDS011;9808;52.402;16.678;2022-10-16T14:16:42;6.25;;;2.33;;
19343;SDS011;9808;52.402;16.678;2022-10-16T14:19:14;4.72;;;2.22;;
19343;SDS011;9808;52.402;16.678;2022-10-16T14:21:44;3.92;;;2.20;;
19343;SDS011;9808;52.402;16.678;2022-10-16T14:24:11;3.50;;;1.95;;
19343;SDS011;9808;52.402;16.678;2022-10-16T14:26:43;3.28;;;1.95;;
19343;SDS011;9808;52.402;16.678;2022-10-16T14:29:19;7.70;;;2.10;;
19343;SDS011;9808;52.402;16.678;2022-10-16T14:31:59;4.93;;;2.20;;
19343;SDS011;9808;52.402;16.678;2022-10-16T14:34:34;3.80;;;2.38;;
19343;SDS011;9808;52.402;16.678;2022-10-16T14:37:14;3.92;;;2.10;;
19343;SDS011;9808;52.402;16.678;2022-10-16T14:39:53;4.88;;;2.38;;
19343;SDS011;9808;52.402;16.678;2022-10-16T14:42:22;7.35;;;2.15;;
19343;SDS011;9808;52.402;16.678;2022-10-16T14:44:51;4.22;;;2.28;;
19343;SDS011;9808;52.402;16.678;2022-10-16T14:47:20;4.43;;;2.10;;
19343;SDS011;9808;52.402;16.678;2022-10-16T14:49:52;4.13;;;2.33;;
19343;SDS011;9808;52.402;16.678;2022-10-16T14:52:25;6.13;;;2.40;;
19343;SDS011;9808;52.402;16.678;2022-10-16T14:54:51;7.10;;;2.30;;
19343;SDS011;9808;52.402;16.678;2022-10-16T14:57:23;3.60;;;2.05;;
19343;SDS011;9808;52.402;16.678;2022-10-16T14:59:53;8.18;;;1.98;;
19343;SDS011;9808;52.402;16.678;2022-10-16T15:02:23;8.13;;;2.00;;
19343;SDS011;9808;52.402;16.678;2022-10-16T15:04:55;3.55;;;1.90;;
19343;SDS011;9808;52.402;16.678;2022-10-16T15:07:23;3.95;;;2.30;;
19343;SDS011;9808;52.402;16.678;2022-10-16T15:09:50;5.20;;;2.05;;
19343;SDS011;9808;52.402;16.678;2022-10-16T15:12:17;5.60;;;2.13;;
19343;SDS011;9808;52.402;16.678;2022-10-16T15:14:44;5.38;;;1.98;;
19343;SDS011;9808;52.402;16.678;2022-10-16T15:17:11;3.33;;;2.00;;
19343;SDS011;9808;52.402;16.678;2022-10-16T15:19:40;4.75;;;1.90;;
19343;SDS011;9808;52.402;16.678;2022-10-16T15:22:08;3.67;;;2.03;;
19343;SDS011;9808;52.402;16.678;2022-10-16T15:24:37;4.03;;;1.92;;
19343;SDS011;9808;52.402;16.678;2022-10-16T15:27:04;3.28;;;1.77;;
19343;SDS011;9808;52.402;16.678;2022-10-16T15:29:31;5.70;;;2.10;;
19343;SDS011;9808;52.402;16.678;2022-10-16T15:31:58;8.77;;;2.00;;
19343;SDS011;9808;52.402;16.678;2022-10-16T15:34:24;4.15;;;2.15;;
19343;SDS011;9808;52.402;16.678;2022-10-16T15:36:51;4.90;;;1.92;;
19343;SDS011;9808;52.402;16.678;2022-10-16T15:39:18;5.28;;;1.75;;
19343;SDS011;9808;52.402;16.678;2022-10-16T15:41:46;2.95;;;1.67;;
19343;SDS011;9808;52.402;16.678;2022-10-16T15:44:17;4.03;;;1.75;;
19343;SDS011;9808;52.402;16.678;2022-10-16T15:46:44;2.95;;;1.60;;
19343;SDS011;9808;52.402;16.678;2022-10-16T15:49:11;3.40;;;1.67;;
19343;SDS011;9808;52.402;16.678;2022-10-16T15:51:39;4.40;;;2.30;;
19343;SDS011;9808;52.402;16.678;2022-10-16T15:54:07;4.40;;;2.28;;
19343;SDS011;9808;52.402;16.678;2022-10-16T15:56:35;6.20;;;3.00;;
19343;SDS011;9808;52.402;16.678;2022-10-16T15:59:03;16.27;;;8.27;;
19343;SDS011;9808;52.402;16.678;2022-10-16T16:01:34;15.10;;;10.02;;
19343;SDS011;9808;52.402;16.678;2022-10-16T16:04:03;12.30;;;8.93;;
19343;SDS011;9808;52.402;16.678;2022-10-16T16:06:45;13.27;;;8.73;;
19343;SDS011;9808;52.402;16.678;2022-10-16T16:09:12;11.90;;;8.25;;
19343;SDS011;9808;52.402;16.678;2022-10-16T16:11:39;10.40;;;6.38;;
19343;SDS011;9808;52.402;16.678;2022-10-16T16:14:06;11.13;;;7.88;;
19343;SDS011;9808;52.402;16.678;2022-10-16T16:16:36;15.05;;;6.82;;
19343;SDS011;9808;52.402;16.678;2022-10-16T16:19:04;10.57;;;6.82;;
19343;SDS011;9808;52.402;16.678;2022-10-16T16:21:36;13.18;;;7.70;;
19343;SDS011;9808;52.402;16.678;2022-10-16T16:24:03;14.32;;;9.25;;
19343;SDS011;9808;52.402;16.678;2022-10-16T16:26:35;18.23;;;11.55;;
19343;SDS011;9808;52.402;16.678;2022-10-16T16:29:06;20.10;;;12.60;;
19343;SDS011;9808;52.402;16.678;2022-10-16T16:31:33;22.35;;;13.93;;
19343;SDS011;9808;52.402;16.678;2022-10-16T16:34:01;36.58;;;21.38;;
19343;SDS011;9808;52.402;16.678;2022-10-16T16:36:27;56.15;;;30.85;;
19343;SDS011;9808;52.402;16.678;2022-10-16T16:38:54;72.93;;;36.53;;
19343;SDS011;9808;52.402;16.678;2022-10-16T16:41:22;88.22;;;43.47;;
19343;SDS011;9808;52.402;16.678;2022-10-16T16:43:51;110.28;;;54.42;;